createdAt,value
2019-03-23T00:00:14.668Z,1022.77
2019-03-23T00:01:14.667Z,1022.78
2019-03-23T00:02:14.648Z,1022.78
2019-03-23T00:03:14.638Z,1022.84
2019-03-23T00:04:14.627Z,1022.79
2019-03-23T00:05:14.624Z,1022.70
2019-03-23T00:06:14.626Z,1022.71
2019-03-23T00:07:14.611Z,1022.72
2019-03-23T00:08:14.605Z,1022.73
2019-03-23T00:09:14.579Z,1022.68
2019-03-23T00:10:14.562Z,1022.71
2019-03-23T00:11:14.568Z,1022.73
2019-03-23T00:12:14.539Z,1022.70
2019-03-23T00:13:14.533Z,1022.72
2019-03-23T00:14:14.612Z,1022.72
2019-03-23T00:15:24.474Z,1022.66
2019-03-23T00:16:14.549Z,1022.74
2019-03-23T00:17:14.489Z,1022.63
2019-03-23T00:18:14.477Z,1022.65
2019-03-23T00:19:14.465Z,1022.66
2019-03-23T00:20:14.589Z,1022.62
2019-03-23T00:21:14.456Z,1022.62
2019-03-23T00:22:14.436Z,1022.61
2019-03-23T00:23:14.420Z,1022.58
2019-03-23T00:24:14.434Z,1022.63
2019-03-23T00:25:14.463Z,1022.61
2019-03-23T00:26:14.397Z,1022.63
2019-03-23T00:27:14.378Z,1022.58
2019-03-23T00:28:14.373Z,1022.58
2019-03-23T00:29:14.357Z,1022.57
2019-03-23T00:30:14.350Z,1022.56
2019-03-23T00:31:14.349Z,1022.52
2019-03-23T00:32:14.328Z,1022.60
2019-03-23T00:33:14.313Z,1022.50
2019-03-23T00:34:14.305Z,1022.55
2019-03-23T00:35:14.294Z,1022.48
2019-03-23T00:36:14.291Z,1022.50
2019-03-23T00:37:14.271Z,1022.47
2019-03-23T00:38:14.262Z,1022.49
2019-03-23T00:39:14.248Z,1022.45
2019-03-23T00:40:14.243Z,1022.41
2019-03-23T00:41:14.281Z,1022.38
2019-03-23T00:42:14.231Z,1022.42
2019-03-23T00:43:14.210Z,1022.42
2019-03-23T00:44:14.198Z,1022.34
2019-03-23T00:45:14.184Z,1022.37
2019-03-23T00:46:14.186Z,1022.33
2019-03-23T00:47:14.162Z,1022.31
2019-03-23T00:48:14.156Z,1022.29
2019-03-23T00:49:14.145Z,1022.29
2019-03-23T00:50:14.135Z,1022.28
2019-03-23T00:51:14.130Z,1022.18
2019-03-23T00:52:14.111Z,1022.22
2019-03-23T00:53:14.100Z,1022.21
2019-03-23T00:54:14.094Z,1022.24
2019-03-23T00:55:14.078Z,1022.10
2019-03-23T00:56:16.462Z,1022.11
2019-03-23T00:57:14.055Z,1022.17
2019-03-23T00:58:14.048Z,1022.17
2019-03-23T00:59:14.957Z,1022.16
2019-03-23T01:00:14.021Z,1022.14
2019-03-23T01:01:14.495Z,1022.17
2019-03-23T01:02:14.010Z,1022.14
2019-03-23T01:03:13.992Z,1022.11
2019-03-23T01:04:13.982Z,1022.11
2019-03-23T01:05:13.971Z,1022.07
2019-03-23T01:06:13.985Z,1022.13
2019-03-23T01:07:13.947Z,1022.07
2019-03-23T01:08:13.941Z,1022.04
2019-03-23T01:09:13.931Z,1022.02
2019-03-23T01:10:13.918Z,1021.97
2019-03-23T01:11:13.909Z,1021.95
2019-03-23T01:12:13.929Z,1021.99
2019-03-23T01:13:13.886Z,1022.05
2019-03-23T01:14:13.892Z,1021.98
2019-03-23T01:15:13.869Z,1022.00
2019-03-23T01:16:13.853Z,1022.01
2019-03-23T01:17:13.852Z,1021.96
2019-03-23T01:18:13.833Z,1021.99
2019-03-23T01:19:13.822Z,1021.96
2019-03-23T01:20:13.810Z,1021.98
2019-03-23T01:21:13.807Z,1022.03
2019-03-23T01:22:13.796Z,1022.02
2019-03-23T01:23:13.806Z,1021.94
2019-03-23T01:24:13.771Z,1021.96
2019-03-23T01:25:13.756Z,1021.92
2019-03-23T01:26:13.809Z,1022.03
2019-03-23T01:27:13.745Z,1021.91
2019-03-23T01:28:13.763Z,1021.96
2019-03-23T01:29:13.711Z,1021.87
2019-03-23T01:30:13.700Z,1021.89
2019-03-23T01:31:13.691Z,1021.85
2019-03-23T01:32:13.698Z,1021.88
2019-03-23T01:33:13.668Z,1021.88
2019-03-23T01:34:13.657Z,1021.91
2019-03-23T01:35:13.650Z,1021.84
2019-03-23T01:36:14.436Z,1021.82
2019-03-23T01:37:13.638Z,1021.82
2019-03-23T01:38:13.620Z,1021.81
2019-03-23T01:39:13.618Z,1021.84
2019-03-23T01:40:13.594Z,1021.77
2019-03-23T01:41:13.595Z,1021.80
2019-03-23T01:42:13.587Z,1021.76
2019-03-23T01:43:13.563Z,1021.74
2019-03-23T01:44:13.552Z,1021.69
2019-03-23T01:45:13.544Z,1021.68
2019-03-23T01:46:13.531Z,1021.76
2019-03-23T01:47:13.529Z,1021.69
2019-03-23T01:48:13.507Z,1021.69
2019-03-23T01:49:13.497Z,1021.61
2019-03-23T01:50:13.488Z,1021.60
2019-03-23T01:51:13.483Z,1021.60
2019-03-23T01:52:13.476Z,1021.56
2019-03-23T01:53:13.455Z,1021.55
2019-03-23T01:54:13.444Z,1021.58
2019-03-23T01:55:13.433Z,1021.51
2019-03-23T01:56:13.425Z,1021.54
2019-03-23T01:57:13.422Z,1021.51
2019-03-23T01:58:13.402Z,1021.45
2019-03-23T01:59:13.391Z,1021.49
2019-03-23T02:00:13.389Z,1021.45
2019-03-23T02:01:13.369Z,1021.49
2019-03-23T02:02:13.370Z,1021.44
2019-03-23T02:03:13.350Z,1021.43
2019-03-23T02:04:13.340Z,1021.39
2019-03-23T02:05:13.327Z,1021.46
2019-03-23T02:06:13.316Z,1021.45
2019-03-23T02:07:14.218Z,1021.38
2019-03-23T02:08:13.296Z,1021.45
2019-03-23T02:09:13.285Z,1021.35
2019-03-23T02:10:13.276Z,1021.42
2019-03-23T02:11:13.262Z,1021.40
2019-03-23T02:12:13.261Z,1021.41
2019-03-23T02:13:13.239Z,1021.43
2019-03-23T02:14:13.227Z,1021.38
2019-03-23T02:15:13.217Z,1021.39
2019-03-23T02:16:13.208Z,1021.42
2019-03-23T02:17:13.206Z,1021.40
2019-03-23T02:18:13.186Z,1021.34
2019-03-23T02:19:13.187Z,1021.39
2019-03-23T02:20:13.166Z,1021.43
2019-03-23T02:21:13.156Z,1021.36
2019-03-23T02:22:13.153Z,1021.36
2019-03-23T02:23:13.144Z,1021.36
2019-03-23T02:24:13.122Z,1021.42
2019-03-23T02:25:13.112Z,1021.34
2019-03-23T02:26:13.099Z,1021.38
2019-03-23T02:27:13.097Z,1021.43
2019-03-23T02:28:13.080Z,1021.40
2019-03-23T02:29:13.067Z,1021.37
2019-03-23T02:30:13.087Z,1021.39
2019-03-23T02:31:13.058Z,1021.42
2019-03-23T02:32:13.052Z,1021.46
2019-03-23T02:33:13.025Z,1021.45
2019-03-23T02:34:13.035Z,1021.43
2019-03-23T02:35:13.008Z,1021.41
2019-03-23T02:36:12.996Z,1021.42
2019-03-23T02:37:12.998Z,1021.38
2019-03-23T02:38:12.976Z,1021.37
2019-03-23T02:39:12.961Z,1021.45
2019-03-23T02:40:12.948Z,1021.41
2019-03-23T02:41:12.949Z,1021.31
2019-03-23T02:42:12.942Z,1021.32
2019-03-23T02:43:12.923Z,1021.32
2019-03-23T02:44:12.907Z,1021.37
2019-03-23T02:45:12.897Z,1021.30
2019-03-23T02:46:12.886Z,1021.34
2019-03-23T02:47:12.888Z,1021.33
2019-03-23T02:48:12.870Z,1021.27
2019-03-23T02:49:12.857Z,1021.35
2019-03-23T02:50:12.871Z,1021.32
2019-03-23T02:51:12.839Z,1021.28
2019-03-23T02:52:12.869Z,1021.28
2019-03-23T02:53:12.820Z,1021.32
2019-03-23T02:54:12.800Z,1021.33
2019-03-23T02:55:12.804Z,1021.34
2019-03-23T02:56:12.780Z,1021.30
2019-03-23T02:57:12.769Z,1021.33
2019-03-23T02:58:12.771Z,1021.36
2019-03-23T02:59:12.747Z,1021.37
2019-03-23T03:00:12.739Z,1021.35
2019-03-23T03:01:12.728Z,1021.35
2019-03-23T03:02:12.717Z,1021.35
2019-03-23T03:03:12.718Z,1021.36
2019-03-23T03:04:12.697Z,1021.41
2019-03-23T03:05:12.697Z,1021.34
2019-03-23T03:06:12.674Z,1021.30
2019-03-23T03:07:12.660Z,1021.31
2019-03-23T03:08:12.660Z,1021.36
2019-03-23T03:09:12.644Z,1021.33
2019-03-23T03:10:12.629Z,1021.20
2019-03-23T03:11:12.618Z,1021.28
2019-03-23T03:12:12.618Z,1021.29
2019-03-23T03:13:12.615Z,1021.20
2019-03-23T03:14:12.587Z,1021.28
2019-03-23T03:15:12.580Z,1021.23
2019-03-23T03:16:12.571Z,1021.23
2019-03-23T03:17:12.554Z,1021.20
2019-03-23T03:18:12.553Z,1021.26
2019-03-23T03:19:12.534Z,1021.21
2019-03-23T03:20:12.525Z,1021.24
2019-03-23T03:21:12.514Z,1021.23
2019-03-23T03:22:12.503Z,1021.23
2019-03-23T03:23:12.506Z,1021.22
2019-03-23T03:24:12.479Z,1021.21
2019-03-23T03:25:12.467Z,1021.24
2019-03-23T03:26:12.457Z,1021.33
2019-03-23T03:27:12.446Z,1021.32
2019-03-23T03:28:12.475Z,1021.38
2019-03-23T03:29:12.429Z,1021.34
2019-03-23T03:30:12.419Z,1021.35
2019-03-23T03:31:12.405Z,1021.35
2019-03-23T03:32:12.393Z,1021.35
2019-03-23T03:33:12.387Z,1021.34
2019-03-23T03:34:12.397Z,1021.30
2019-03-23T03:35:12.363Z,1021.35
2019-03-23T03:36:12.360Z,1021.32
2019-03-23T03:37:12.342Z,1021.33
2019-03-23T03:38:12.328Z,1021.25
2019-03-23T03:39:12.327Z,1021.24
2019-03-23T03:40:12.319Z,1021.22
2019-03-23T03:41:12.295Z,1021.27
2019-03-23T03:42:12.291Z,1021.17
2019-03-23T03:43:12.274Z,1021.23
2019-03-23T03:44:12.274Z,1021.23
2019-03-23T03:45:12.264Z,1021.26
2019-03-23T03:46:12.242Z,1021.26
2019-03-23T03:47:12.229Z,1021.22
2019-03-23T03:48:12.220Z,1021.22
2019-03-23T03:49:13.154Z,1021.29
2019-03-23T03:50:12.205Z,1021.18
2019-03-23T03:51:12.195Z,1021.24
2019-03-23T03:52:12.178Z,1021.21
2019-03-23T03:53:12.169Z,1021.21
2019-03-23T03:54:12.170Z,1021.21
2019-03-23T03:55:12.144Z,1021.20
2019-03-23T03:56:12.133Z,1021.21
2019-03-23T03:57:12.134Z,1021.17
2019-03-23T03:58:12.112Z,1021.16
2019-03-23T03:59:12.112Z,1021.15
2019-03-23T04:00:12.093Z,1021.14
2019-03-23T04:01:12.084Z,1021.11
2019-03-23T04:02:12.069Z,1021.16
2019-03-23T04:03:12.063Z,1021.15
2019-03-23T04:04:12.060Z,1021.13
2019-03-23T04:05:12.044Z,1021.10
2019-03-23T04:06:12.029Z,1021.12
2019-03-23T04:07:12.023Z,1021.12
2019-03-23T04:08:12.266Z,1021.10
2019-03-23T04:09:12.009Z,1021.09
2019-03-23T04:10:11.983Z,1021.11
2019-03-23T04:11:11.974Z,1021.10
2019-03-23T04:12:11.966Z,1021.15
2019-03-23T04:13:11.952Z,1021.08
2019-03-23T04:14:11.951Z,1021.09
2019-03-23T04:15:11.929Z,1021.11
2019-03-23T04:16:11.922Z,1021.12
2019-03-23T04:17:11.910Z,1021.12
2019-03-23T04:18:11.896Z,1021.09
2019-03-23T04:19:11.924Z,1021.09
2019-03-23T04:20:11.894Z,1021.06
2019-03-23T04:21:11.866Z,1021.09
2019-03-23T04:22:11.854Z,1021.12
2019-03-23T04:23:11.886Z,1021.07
2019-03-23T04:24:11.834Z,1021.12
2019-03-23T04:25:11.833Z,1021.09
2019-03-23T04:26:11.814Z,1021.11
2019-03-23T04:27:11.803Z,1021.05
2019-03-23T04:28:11.792Z,1021.07
2019-03-23T04:29:11.782Z,1021.08
2019-03-23T04:30:11.803Z,1021.08
2019-03-23T04:31:11.766Z,1021.05
2019-03-23T04:32:11.756Z,1021.10
2019-03-23T04:33:11.739Z,1021.09
2019-03-23T04:34:11.731Z,1021.10
2019-03-23T04:35:11.725Z,1021.11
2019-03-23T04:36:11.706Z,1021.09
2019-03-23T04:37:11.695Z,1021.08
2019-03-23T04:38:22.178Z,1021.07
2019-03-23T04:39:12.680Z,1021.13
2019-03-23T04:40:11.672Z,1021.03
2019-03-23T04:41:11.669Z,1021.03
2019-03-23T04:42:11.640Z,1021.01
2019-03-23T04:43:11.632Z,1020.99
2019-03-23T04:44:11.621Z,1021.01
2019-03-23T04:45:11.621Z,1020.97
2019-03-23T04:46:11.598Z,1021.00
2019-03-23T04:47:11.587Z,1020.98
2019-03-23T04:48:11.578Z,1021.00
2019-03-23T04:49:11.577Z,1020.92
2019-03-23T04:50:11.565Z,1020.91
2019-03-23T04:51:11.547Z,1020.91
2019-03-23T04:52:11.533Z,1020.91
2019-03-23T04:53:11.523Z,1020.94
2019-03-23T04:54:11.512Z,1020.91
2019-03-23T04:55:11.514Z,1020.93
2019-03-23T04:56:11.489Z,1020.89
2019-03-23T04:57:11.485Z,1020.86
2019-03-23T04:58:11.470Z,1020.88
2019-03-23T04:59:11.458Z,1020.91
2019-03-23T05:00:11.459Z,1020.87
2019-03-23T05:01:11.439Z,1020.92
2019-03-23T05:02:11.433Z,1020.86
2019-03-23T05:03:11.421Z,1020.94
2019-03-23T05:04:11.407Z,1020.96
2019-03-23T05:05:11.412Z,1020.93
2019-03-23T05:06:11.391Z,1020.89
2019-03-23T05:07:11.376Z,1020.88
2019-03-23T05:08:11.363Z,1020.90
2019-03-23T05:09:11.351Z,1020.93
2019-03-23T05:10:11.344Z,1020.87
2019-03-23T05:11:11.346Z,1020.90
2019-03-23T05:12:11.320Z,1020.89
2019-03-23T05:13:11.312Z,1020.87
2019-03-23T05:14:11.303Z,1020.84
2019-03-23T05:15:11.293Z,1020.83
2019-03-23T05:16:11.287Z,1020.86
2019-03-23T05:17:11.267Z,1020.81
2019-03-23T05:18:11.258Z,1020.78
2019-03-23T05:19:11.244Z,1020.77
2019-03-23T05:20:11.233Z,1020.72
2019-03-23T05:21:11.235Z,1020.77
2019-03-23T05:22:11.220Z,1020.74
2019-03-23T05:23:11.201Z,1020.81
2019-03-23T05:24:11.191Z,1020.81
2019-03-23T05:25:11.179Z,1020.84
2019-03-23T05:26:11.180Z,1020.78
2019-03-23T05:27:11.158Z,1020.81
2019-03-23T05:28:11.151Z,1020.81
2019-03-23T05:29:11.137Z,1020.79
2019-03-23T05:30:11.126Z,1020.81
2019-03-23T05:31:11.124Z,1020.87
2019-03-23T05:32:11.107Z,1020.82
2019-03-23T05:33:11.103Z,1020.84
2019-03-23T05:34:11.093Z,1020.80
2019-03-23T05:35:11.073Z,1020.80
2019-03-23T05:36:11.072Z,1020.79
2019-03-23T05:37:11.052Z,1020.79
2019-03-23T05:38:11.042Z,1020.81
2019-03-23T05:39:11.031Z,1020.83
2019-03-23T05:40:11.023Z,1020.80
2019-03-23T05:41:11.018Z,1020.86
2019-03-23T05:42:11.001Z,1020.82
2019-03-23T05:43:10.989Z,1020.84
2019-03-23T05:44:10.977Z,1020.84
2019-03-23T05:45:10.967Z,1020.92
2019-03-23T05:46:10.975Z,1020.83
2019-03-23T05:47:10.946Z,1020.77
2019-03-23T05:48:10.934Z,1020.82
2019-03-23T05:49:10.925Z,1020.73
2019-03-23T05:50:10.913Z,1020.78
2019-03-23T05:51:10.913Z,1020.80
2019-03-23T05:52:10.895Z,1020.81
2019-03-23T05:53:10.882Z,1020.85
2019-03-23T05:54:10.873Z,1020.84
2019-03-23T05:55:10.861Z,1020.86
2019-03-23T05:56:10.873Z,1020.79
2019-03-23T05:57:10.848Z,1020.81
2019-03-23T05:58:10.827Z,1020.81
2019-03-23T05:59:10.816Z,1020.80
2019-03-23T06:00:10.805Z,1020.74
2019-03-23T06:01:10.803Z,1020.84
2019-03-23T06:02:10.797Z,1020.77
2019-03-23T06:03:10.774Z,1020.86
2019-03-23T06:04:10.765Z,1020.77
2019-03-23T06:05:10.754Z,1020.77
2019-03-23T06:06:10.741Z,1020.76
2019-03-23T06:07:10.742Z,1020.76
2019-03-23T06:08:10.721Z,1020.68
2019-03-23T06:09:10.714Z,1020.73
2019-03-23T06:10:10.702Z,1020.74
2019-03-23T06:11:10.691Z,1020.74
2019-03-23T06:12:10.687Z,1020.82
2019-03-23T06:13:10.716Z,1020.84
2019-03-23T06:14:10.659Z,1020.79
2019-03-23T06:15:10.653Z,1020.81
2019-03-23T06:16:10.633Z,1020.86
2019-03-23T06:17:10.635Z,1020.88
2019-03-23T06:18:10.614Z,1020.84
2019-03-23T06:19:10.601Z,1020.86
2019-03-23T06:20:10.591Z,1020.80
2019-03-23T06:21:10.583Z,1020.79
2019-03-23T06:22:10.589Z,1020.77
2019-03-23T06:23:10.565Z,1020.82
2019-03-23T06:24:10.550Z,1020.79
2019-03-23T06:25:10.543Z,1020.80
2019-03-23T06:26:10.536Z,1020.88
2019-03-23T06:27:10.529Z,1020.81
2019-03-23T06:28:10.510Z,1020.84
2019-03-23T06:29:10.494Z,1020.89
2019-03-23T06:30:10.484Z,1020.88
2019-03-23T06:31:10.526Z,1020.87
2019-03-23T06:32:10.476Z,1020.87
2019-03-23T06:33:10.458Z,1020.89
2019-03-23T06:34:10.440Z,1020.91
2019-03-23T06:35:10.432Z,1020.95
2019-03-23T06:36:10.421Z,1020.94
2019-03-23T06:37:10.429Z,1020.90
2019-03-23T06:38:10.401Z,1020.96
2019-03-23T06:39:10.389Z,1020.92
2019-03-23T06:40:10.378Z,1020.90
2019-03-23T06:41:10.371Z,1020.86
2019-03-23T06:42:10.371Z,1020.90
2019-03-23T06:43:10.346Z,1020.92
2019-03-23T06:44:10.335Z,1020.92
2019-03-23T06:45:10.327Z,1020.95
2019-03-23T06:46:10.314Z,1020.92
2019-03-23T06:47:10.318Z,1020.90
2019-03-23T06:48:10.291Z,1020.84
2019-03-23T06:49:10.279Z,1020.88
2019-03-23T06:50:10.270Z,1020.94
2019-03-23T06:51:10.261Z,1020.85
2019-03-23T06:52:10.263Z,1020.86
2019-03-23T06:53:10.235Z,1020.86
2019-03-23T06:54:10.227Z,1020.93
2019-03-23T06:55:10.212Z,1020.85
2019-03-23T06:56:10.207Z,1020.90
2019-03-23T06:57:10.206Z,1020.89
2019-03-23T06:58:10.179Z,1020.91
2019-03-23T06:59:10.185Z,1020.90
2019-03-23T07:00:10.162Z,1020.88
2019-03-23T07:01:10.150Z,1020.94
2019-03-23T07:02:10.155Z,1020.86
2019-03-23T07:03:10.131Z,1020.89
2019-03-23T07:04:10.118Z,1020.89
2019-03-23T07:05:10.111Z,1020.84
2019-03-23T07:06:10.095Z,1020.85
2019-03-23T07:07:10.105Z,1020.77
2019-03-23T07:08:10.080Z,1020.72
2019-03-23T07:09:16.043Z,1020.84
2019-03-23T07:10:11.053Z,1020.76
2019-03-23T07:11:10.046Z,1020.79
2019-03-23T07:12:10.044Z,1020.74
2019-03-23T07:13:10.021Z,1020.80
2019-03-23T07:14:10.010Z,1020.77
2019-03-23T07:15:19.484Z,1020.81
2019-03-23T07:16:10.987Z,1020.78
2019-03-23T07:17:09.990Z,1020.80
2019-03-23T07:18:09.967Z,1020.85
2019-03-23T07:19:09.959Z,1020.83
2019-03-23T07:20:09.946Z,1020.85
2019-03-23T07:21:09.934Z,1020.86
2019-03-23T07:22:09.934Z,1020.86
2019-03-23T07:23:09.913Z,1020.91
2019-03-23T07:24:09.903Z,1020.96
2019-03-23T07:25:09.893Z,1020.89
2019-03-23T07:26:09.882Z,1020.93
2019-03-23T07:27:09.879Z,1020.99
2019-03-23T07:28:09.861Z,1021.02
2019-03-23T07:29:09.847Z,1021.14
2019-03-23T07:30:09.837Z,1021.19
2019-03-23T07:31:09.834Z,1021.29
2019-03-23T07:32:09.833Z,1021.35
2019-03-23T07:33:09.807Z,1021.33
2019-03-23T07:34:09.793Z,1021.31
2019-03-23T07:35:09.783Z,1021.42
2019-03-23T07:36:09.771Z,1021.38
2019-03-23T07:37:09.790Z,1021.42
2019-03-23T07:38:09.754Z,1021.45
2019-03-23T07:39:09.740Z,1021.53
2019-03-23T07:40:09.728Z,1021.48
2019-03-23T07:41:09.716Z,1021.53
2019-03-23T07:42:09.722Z,1021.55
2019-03-23T07:43:09.701Z,1021.58
2019-03-23T07:44:09.686Z,1021.58
2019-03-23T07:45:09.676Z,1021.60
2019-03-23T07:46:09.662Z,1021.60
2019-03-23T07:47:09.663Z,1021.59
2019-03-23T07:48:09.643Z,1021.63
2019-03-23T07:49:09.636Z,1021.67
2019-03-23T07:50:09.623Z,1021.62
2019-03-23T07:51:09.613Z,1021.65
2019-03-23T07:52:09.612Z,1021.61
2019-03-23T07:53:09.589Z,1021.58
2019-03-23T07:54:09.579Z,1021.60
2019-03-23T07:55:09.572Z,1021.61
2019-03-23T07:56:09.557Z,1021.68
2019-03-23T07:57:09.557Z,1021.65
2019-03-23T07:58:09.539Z,1021.66
2019-03-23T07:59:09.531Z,1021.69
2019-03-23T08:00:09.519Z,1021.67
2019-03-23T08:01:09.504Z,1021.68
2019-03-23T08:02:09.510Z,1021.65
2019-03-23T08:03:09.485Z,1021.72
2019-03-23T08:04:09.477Z,1021.74
2019-03-23T08:05:09.470Z,1021.65
2019-03-23T08:06:09.454Z,1021.69
2019-03-23T08:07:09.470Z,1021.69
2019-03-23T08:08:09.437Z,1021.69
2019-03-23T08:09:19.806Z,1021.67
2019-03-23T08:10:10.413Z,1021.66
2019-03-23T08:11:09.401Z,1021.69
2019-03-23T08:12:09.394Z,1021.70
2019-03-23T08:13:09.394Z,1021.69
2019-03-23T08:14:09.372Z,1021.69
2019-03-23T08:15:09.365Z,1021.71
2019-03-23T08:16:09.358Z,1021.70
2019-03-23T08:17:09.343Z,1021.73
2019-03-23T08:18:09.347Z,1021.74
2019-03-23T08:19:09.320Z,1021.66
2019-03-23T08:20:09.313Z,1021.47
2019-03-23T08:21:09.302Z,1021.39
2019-03-23T08:22:11.180Z,1021.39
2019-03-23T08:23:09.291Z,1021.39
2019-03-23T08:24:09.274Z,1021.31
2019-03-23T08:25:09.303Z,1021.27
2019-03-23T08:26:09.252Z,1021.19
2019-03-23T08:27:09.240Z,1021.24
2019-03-23T08:28:09.575Z,1021.42
2019-03-23T08:29:09.222Z,1021.52
2019-03-23T08:30:09.211Z,1021.51
2019-03-23T08:31:09.205Z,1021.60
2019-03-23T08:32:09.191Z,1021.65
2019-03-23T08:33:09.187Z,1021.60
2019-03-23T08:34:09.169Z,1021.63
2019-03-23T08:35:09.156Z,1021.66
2019-03-23T08:36:09.149Z,1021.70
2019-03-23T08:37:09.139Z,1021.62
2019-03-23T08:38:09.136Z,1021.60
2019-03-23T08:39:09.147Z,1021.59
2019-03-23T08:40:09.105Z,1021.63
2019-03-23T08:41:09.099Z,1021.62
2019-03-23T08:42:09.088Z,1021.53
2019-03-23T08:43:10.222Z,1021.48
2019-03-23T08:44:09.068Z,1021.53
2019-03-23T08:45:09.283Z,1021.42
2019-03-23T08:46:11.033Z,1021.40
2019-03-23T08:47:10.033Z,1021.30
2019-03-23T08:48:10.578Z,1021.29
2019-03-23T08:49:09.019Z,1021.24
2019-03-23T08:50:10.036Z,1021.23
2019-03-23T08:51:09.000Z,1021.25
2019-03-23T08:52:08.989Z,1021.30
2019-03-23T08:53:08.987Z,1021.37
2019-03-23T08:54:08.968Z,1021.29
2019-03-23T08:55:08.960Z,1021.22
2019-03-23T08:56:08.953Z,1021.19
2019-03-23T08:57:08.938Z,1021.15
2019-03-23T08:58:13.566Z,1021.14
2019-03-23T08:59:12.539Z,1021.21
2019-03-23T09:00:08.909Z,1021.31
2019-03-23T09:01:11.568Z,1021.38
2019-03-23T09:02:08.890Z,1021.46
2019-03-23T09:03:08.881Z,1021.40
2019-03-23T09:04:08.878Z,1021.35
2019-03-23T09:05:08.859Z,1021.29
2019-03-23T09:06:08.846Z,1021.31
2019-03-23T09:07:15.573Z,1021.27
2019-03-23T09:08:08.829Z,1021.27
2019-03-23T09:09:11.549Z,1021.31
2019-03-23T09:10:08.857Z,1021.27
2019-03-23T09:11:08.798Z,1021.27
2019-03-23T09:12:12.547Z,1021.25
2019-03-23T09:13:08.783Z,1021.31
2019-03-23T09:14:10.637Z,1021.33
2019-03-23T09:15:11.577Z,1021.31
2019-03-23T09:16:08.749Z,1021.30
2019-03-23T09:17:08.736Z,1021.29
2019-03-23T09:18:08.727Z,1021.26
2019-03-23T09:19:08.726Z,1021.31
2019-03-23T09:20:08.709Z,1021.33
2019-03-23T09:21:08.701Z,1021.26
2019-03-23T09:22:08.687Z,1021.28
2019-03-23T09:23:08.679Z,1021.27
2019-03-23T09:24:08.674Z,1021.31
2019-03-23T09:25:08.656Z,1021.33
2019-03-23T09:26:08.646Z,1021.32
2019-03-23T09:27:08.634Z,1021.32
2019-03-23T09:28:08.627Z,1021.28
2019-03-23T09:29:08.623Z,1021.26
2019-03-23T09:30:08.606Z,1021.28
2019-03-23T09:31:08.597Z,1021.28
2019-03-23T09:32:08.583Z,1021.29
2019-03-23T09:33:08.573Z,1021.33
2019-03-23T09:34:08.586Z,1021.32
2019-03-23T09:35:08.551Z,1021.30
2019-03-23T09:36:08.543Z,1021.34
2019-03-23T09:37:08.553Z,1021.43
2019-03-23T09:38:08.527Z,1021.47
2019-03-23T09:39:08.511Z,1021.52
2019-03-23T09:40:10.992Z,1021.48
2019-03-23T09:41:08.489Z,1021.44
2019-03-23T09:42:08.484Z,1021.46
2019-03-23T09:43:08.470Z,1021.48
2019-03-23T09:44:08.468Z,1021.43
2019-03-23T09:45:08.458Z,1021.44
2019-03-23T09:46:08.440Z,1021.43
2019-03-23T09:47:08.434Z,1021.45
2019-03-23T09:48:08.419Z,1021.50
2019-03-23T09:49:08.409Z,1021.44
2019-03-23T09:50:08.413Z,1021.44
2019-03-23T09:51:08.390Z,1021.46
2019-03-23T09:52:08.382Z,1021.49
2019-03-23T09:53:08.375Z,1021.48
2019-03-23T09:54:08.358Z,1021.43
2019-03-23T09:55:08.358Z,1021.44
2019-03-23T09:56:08.338Z,1021.43
2019-03-23T09:57:08.328Z,1021.42
2019-03-23T09:58:08.317Z,1021.47
2019-03-23T09:59:08.313Z,1021.45
2019-03-23T10:00:08.307Z,1021.43
2019-03-23T10:01:08.285Z,1021.44
2019-03-23T10:02:08.277Z,1021.46
2019-03-23T10:03:08.270Z,1021.42
2019-03-23T10:04:08.255Z,1021.39
2019-03-23T10:05:08.254Z,1021.38
2019-03-23T10:06:08.236Z,1021.33
2019-03-23T10:07:08.226Z,1021.41
2019-03-23T10:08:08.220Z,1021.40
2019-03-23T10:09:08.221Z,1021.41
2019-03-23T10:10:08.200Z,1021.37
2019-03-23T10:11:08.192Z,1021.44
2019-03-23T10:12:08.171Z,1021.42
2019-03-23T10:13:11.110Z,1021.41
2019-03-23T10:14:08.155Z,1021.41
2019-03-23T10:15:08.150Z,1021.39
2019-03-23T10:16:08.131Z,1021.32
2019-03-23T10:17:08.117Z,1021.33
2019-03-23T10:18:08.111Z,1021.33
2019-03-23T10:19:08.100Z,1021.34
2019-03-23T10:20:08.095Z,1021.34
2019-03-23T10:21:08.515Z,1021.26
2019-03-23T10:22:08.070Z,1021.28
2019-03-23T10:23:08.054Z,1021.25
2019-03-23T10:24:08.047Z,1021.20
2019-03-23T10:25:08.044Z,1021.23
2019-03-23T10:26:08.026Z,1021.26
2019-03-23T10:27:08.174Z,1021.20
2019-03-23T10:28:08.025Z,1021.27
2019-03-23T10:29:07.990Z,1021.21
2019-03-23T10:30:07.995Z,1021.22
2019-03-23T10:31:07.968Z,1021.18
2019-03-23T10:32:07.957Z,1021.19
2019-03-23T10:33:07.953Z,1021.18
2019-03-23T10:34:07.937Z,1021.21
2019-03-23T10:35:07.940Z,1021.15
2019-03-23T10:36:07.920Z,1021.20
2019-03-23T10:37:07.909Z,1021.18
2019-03-23T10:38:07.901Z,1021.21
2019-03-23T10:39:07.913Z,1021.16
2019-03-23T10:40:07.890Z,1021.22
2019-03-23T10:41:07.867Z,1021.19
2019-03-23T10:42:07.862Z,1021.16
2019-03-23T10:43:07.857Z,1021.19
2019-03-23T10:44:07.833Z,1021.18
2019-03-23T10:45:07.846Z,1021.21
2019-03-23T10:46:07.810Z,1021.27
2019-03-23T10:47:07.799Z,1021.26
2019-03-23T10:48:07.791Z,1021.30
2019-03-23T10:49:07.778Z,1021.31
2019-03-23T10:50:07.768Z,1021.30
2019-03-23T10:51:07.767Z,1021.28
2019-03-23T10:52:07.760Z,1021.30
2019-03-23T10:53:07.739Z,1021.34
2019-03-23T10:54:07.725Z,1021.30
2019-03-23T10:55:07.717Z,1021.31
2019-03-23T10:56:07.714Z,1021.31
2019-03-23T10:57:07.694Z,1021.33
2019-03-23T10:58:07.724Z,1021.37
2019-03-23T10:59:07.676Z,1021.31
2019-03-23T11:00:07.662Z,1021.36
2019-03-23T11:01:07.670Z,1021.32
2019-03-23T11:02:07.640Z,1021.36
2019-03-23T11:03:07.629Z,1021.31
2019-03-23T11:04:07.625Z,1021.29
2019-03-23T11:05:07.610Z,1021.31
2019-03-23T11:06:07.609Z,1021.29
2019-03-23T11:07:07.588Z,1021.30
2019-03-23T11:08:07.577Z,1021.34
2019-03-23T11:09:07.567Z,1021.33
2019-03-23T11:10:07.560Z,1021.38
2019-03-23T11:11:07.580Z,1021.38
2019-03-23T11:12:07.538Z,1021.36
2019-03-23T11:13:07.523Z,1021.39
2019-03-23T11:14:07.514Z,1021.38
2019-03-23T11:15:07.503Z,1021.37
2019-03-23T11:16:07.504Z,1021.41
2019-03-23T11:17:07.493Z,1021.38
2019-03-23T11:18:07.561Z,1021.41
2019-03-23T11:19:13.303Z,1021.40
2019-03-23T11:20:08.495Z,1021.40
2019-03-23T11:21:07.505Z,1021.39
2019-03-23T11:22:09.606Z,1021.34
2019-03-23T11:23:07.426Z,1021.33
2019-03-23T11:24:07.411Z,1021.31
2019-03-23T11:25:07.401Z,1021.36
2019-03-23T11:26:07.419Z,1021.33
2019-03-23T11:27:07.380Z,1021.32
2019-03-23T11:28:07.369Z,1021.38
2019-03-23T11:29:08.410Z,1021.39
2019-03-23T11:30:07.375Z,1021.40
2019-03-23T11:31:07.337Z,1021.38
2019-03-23T11:32:07.337Z,1021.39
2019-03-23T11:33:07.316Z,1021.41
2019-03-23T11:34:17.219Z,1021.41
2019-03-23T11:35:08.321Z,1021.41
2019-03-23T11:36:07.282Z,1021.44
2019-03-23T11:37:07.369Z,1021.43
2019-03-23T11:38:07.307Z,1021.42
2019-03-23T11:39:07.262Z,1021.42
2019-03-23T11:40:07.240Z,1021.43
2019-03-23T11:41:07.232Z,1021.46
2019-03-23T11:42:07.676Z,1021.47
2019-03-23T11:43:07.208Z,1021.44
2019-03-23T11:44:07.199Z,1021.55
2019-03-23T11:45:07.189Z,1021.63
2019-03-23T11:46:07.176Z,1021.65
2019-03-23T11:47:07.176Z,1021.65
2019-03-23T11:48:07.158Z,1021.63
2019-03-23T11:49:07.145Z,1021.67
2019-03-23T11:50:07.135Z,1021.72
2019-03-23T11:51:07.122Z,1021.76
2019-03-23T11:52:07.123Z,1021.75
2019-03-23T11:53:07.100Z,1021.78
2019-03-23T11:54:07.106Z,1021.83
2019-03-23T11:55:07.081Z,1021.80
2019-03-23T11:56:07.129Z,1021.83
2019-03-23T11:57:07.071Z,1021.87
2019-03-23T11:58:07.049Z,1021.82
2019-03-23T11:59:07.039Z,1021.77
2019-03-23T12:00:07.028Z,1021.82
2019-03-23T12:01:07.018Z,1021.78
2019-03-23T12:02:07.017Z,1021.76
2019-03-23T12:03:07.001Z,1021.84
2019-03-23T12:04:06.987Z,1021.83
2019-03-23T12:05:06.975Z,1021.81